createdAt,value
2019-01-18T00:00:45.706Z,0
2019-01-18T00:01:45.690Z,0
2019-01-18T00:02:45.670Z,0
2019-01-18T00:03:45.654Z,0
2019-01-18T00:04:45.645Z,0
2019-01-18T00:05:45.624Z,0
2019-01-18T00:06:45.619Z,0
2019-01-18T00:07:45.593Z,0
2019-01-18T00:08:45.593Z,0
2019-01-18T00:09:45.611Z,0
2019-01-18T00:10:45.549Z,0
2019-01-18T00:11:45.537Z,0
2019-01-18T00:12:45.516Z,0
2019-01-18T00:13:45.551Z,0
2019-01-18T00:14:45.488Z,0
2019-01-18T00:15:45.470Z,0
2019-01-18T00:16:45.456Z,0
2019-01-18T00:17:45.440Z,0
2019-01-18T00:18:45.425Z,0
2019-01-18T00:19:45.411Z,0
2019-01-18T00:20:45.397Z,0
2019-01-18T00:21:45.143Z,0
2019-01-18T00:22:45.383Z,0
2019-01-18T00:23:45.347Z,0
2019-01-18T00:24:45.600Z,0
2019-01-18T00:25:45.325Z,0
2019-01-18T00:26:45.306Z,0
2019-01-18T00:27:45.289Z,0
2019-01-18T00:28:45.278Z,0
2019-01-18T00:29:45.263Z,0
2019-01-18T00:30:45.254Z,0
2019-01-18T00:31:45.231Z,0
2019-01-18T00:32:45.227Z,0
2019-01-18T00:33:45.198Z,0
2019-01-18T00:34:45.184Z,0
2019-01-18T00:35:45.178Z,0
2019-01-18T00:36:45.161Z,0
2019-01-18T00:37:45.142Z,0
2019-01-18T00:38:44.885Z,0
2019-01-18T00:39:45.111Z,0
2019-01-18T00:40:44.865Z,0
2019-01-18T00:41:45.088Z,0
2019-01-18T00:42:45.072Z,0
2019-01-18T00:43:45.052Z,0
2019-01-18T00:44:45.034Z,0
2019-01-18T00:45:45.019Z,0
2019-01-18T00:46:45.010Z,0
2019-01-18T00:47:44.986Z,0
2019-01-18T00:48:44.985Z,0
2019-01-18T00:49:44.961Z,0
2019-01-18T00:50:44.950Z,0
2019-01-18T00:51:44.932Z,0
2019-01-18T00:52:44.919Z,0
2019-01-18T00:53:44.899Z,0
2019-01-18T00:54:44.885Z,0
2019-01-18T00:55:45.136Z,0
2019-01-18T00:56:44.857Z,0
2019-01-18T00:57:44.844Z,0
2019-01-18T00:58:44.834Z,0
2019-01-18T00:59:45.889Z,0
2019-01-18T01:00:44.793Z,0
2019-01-18T01:01:44.780Z,0
2019-01-18T01:02:44.764Z,0
2019-01-18T01:03:44.747Z,0
2019-01-18T01:04:44.733Z,0
2019-01-18T01:05:44.723Z,0
2019-01-18T01:06:44.717Z,0
2019-01-18T01:07:44.692Z,0
2019-01-18T01:08:44.672Z,0
2019-01-18T01:09:44.660Z,0
2019-01-18T01:10:44.644Z,0
2019-01-18T01:11:44.629Z,0
2019-01-18T01:12:44.620Z,0
2019-01-18T01:13:44.596Z,0
2019-01-18T01:14:44.583Z,0
2019-01-18T01:15:44.570Z,0
2019-01-18T01:16:44.550Z,0
2019-01-18T01:17:44.535Z,0
2019-01-18T01:18:44.530Z,0
2019-01-18T01:19:44.506Z,0
2019-01-18T01:20:44.490Z,0
2019-01-18T01:21:44.475Z,0
2019-01-18T01:22:44.461Z,0
2019-01-18T01:23:44.445Z,0
2019-01-18T01:24:44.430Z,0
2019-01-18T01:25:44.427Z,0
2019-01-18T01:26:44.658Z,0
2019-01-18T01:27:44.392Z,0
2019-01-18T01:28:44.372Z,0
2019-01-18T01:29:50.098Z,0
2019-01-18T01:30:44.337Z,0
2019-01-18T01:31:44.327Z,0
2019-01-18T01:32:44.308Z,0
2019-01-18T01:33:44.291Z,0
2019-01-18T01:34:44.278Z,0
2019-01-18T01:35:44.263Z,0
2019-01-18T01:36:44.272Z,0
2019-01-18T01:37:44.243Z,0
2019-01-18T01:38:44.215Z,0
2019-01-18T01:39:44.196Z,0
2019-01-18T01:40:44.188Z,0
2019-01-18T01:41:44.170Z,0
2019-01-18T01:42:44.203Z,0
2019-01-18T01:43:44.138Z,0
2019-01-18T01:44:44.120Z,0
2019-01-18T01:45:44.142Z,0
2019-01-18T01:46:44.098Z,0
2019-01-18T01:47:44.083Z,0
2019-01-18T01:48:44.076Z,0
2019-01-18T01:49:44.049Z,0
2019-01-18T01:50:44.038Z,0
2019-01-18T01:51:44.015Z,0
2019-01-18T01:52:44.002Z,0
2019-01-18T01:53:43.995Z,0
2019-01-18T01:54:43.976Z,0
2019-01-18T01:55:44.021Z,0
2019-01-18T01:56:43.938Z,0
2019-01-18T01:57:44.177Z,0
2019-01-18T01:58:43.671Z,0
2019-01-18T01:59:49.650Z,0
2019-01-18T02:00:43.877Z,0
2019-01-18T02:01:43.863Z,0
2019-01-18T02:02:43.897Z,0
2019-01-18T02:03:43.836Z,0
2019-01-18T02:04:43.822Z,0
2019-01-18T02:05:43.800Z,0
2019-01-18T02:06:43.785Z,0
2019-01-18T02:07:43.771Z,0
2019-01-18T02:08:43.759Z,0
2019-01-18T02:09:43.783Z,0
2019-01-18T02:10:43.723Z,0
2019-01-18T02:11:43.717Z,0
2019-01-18T02:12:43.688Z,0
2019-01-18T02:13:43.677Z,0
2019-01-18T02:14:43.667Z,0
2019-01-18T02:15:43.665Z,0
2019-01-18T02:16:43.633Z,0
2019-01-18T02:17:43.617Z,0
2019-01-18T02:18:43.596Z,0
2019-01-18T02:19:43.585Z,0
2019-01-18T02:20:43.564Z,0
2019-01-18T02:21:43.553Z,0
2019-01-18T02:22:43.533Z,0
2019-01-18T02:23:43.515Z,0
2019-01-18T02:24:43.511Z,0
2019-01-18T02:25:43.487Z,0
2019-01-18T02:26:43.495Z,0
2019-01-18T02:27:43.457Z,0
2019-01-18T02:28:43.688Z,0
2019-01-18T02:29:43.423Z,0
2019-01-18T02:30:43.412Z,0
2019-01-18T02:31:43.391Z,0
2019-01-18T02:32:43.381Z,0
2019-01-18T02:33:43.376Z,0
2019-01-18T02:34:43.356Z,0
2019-01-18T02:35:43.343Z,0
2019-01-18T02:36:43.308Z,0
2019-01-18T02:37:43.290Z,0
2019-01-18T02:38:43.283Z,0
2019-01-18T02:39:43.608Z,0
2019-01-18T02:40:43.249Z,0
2019-01-18T02:41:43.234Z,0
2019-01-18T02:42:42.979Z,0
2019-01-18T02:43:43.197Z,0
2019-01-18T02:44:43.189Z,0
2019-01-18T02:45:43.178Z,0
2019-01-18T02:46:43.145Z,0
2019-01-18T02:47:43.128Z,0
2019-01-18T02:48:43.112Z,0
2019-01-18T02:49:43.094Z,0
2019-01-18T02:50:43.083Z,0
2019-01-18T02:51:43.057Z,0
2019-01-18T02:52:43.045Z,0
2019-01-18T02:53:43.052Z,0
2019-01-18T02:54:43.011Z,0
2019-01-18T02:55:42.996Z,0
2019-01-18T02:56:43.044Z,0
2019-01-18T02:57:42.981Z,0
2019-01-18T02:58:42.951Z,0
2019-01-18T02:59:42.931Z,0
2019-01-18T03:00:43.164Z,0
2019-01-18T03:01:42.919Z,0
2019-01-18T03:02:42.890Z,0
2019-01-18T03:03:42.898Z,0
2019-01-18T03:04:42.849Z,0
2019-01-18T03:05:42.824Z,0
2019-01-18T03:06:42.808Z,0
2019-01-18T03:07:42.789Z,0
2019-01-18T03:08:42.794Z,0
2019-01-18T03:09:42.759Z,0
2019-01-18T03:10:42.754Z,0
2019-01-18T03:11:42.727Z,0
2019-01-18T03:12:42.714Z,0
2019-01-18T03:13:42.703Z,0
2019-01-18T03:14:42.679Z,0
2019-01-18T03:15:42.655Z,0
2019-01-18T03:16:42.643Z,0
2019-01-18T03:17:42.624Z,0
2019-01-18T03:18:42.608Z,0
2019-01-18T03:19:42.599Z,0
2019-01-18T03:20:42.571Z,0
2019-01-18T03:21:42.576Z,0
2019-01-18T03:22:42.564Z,0
2019-01-18T03:23:42.522Z,0
2019-01-18T03:24:42.505Z,0
2019-01-18T03:25:42.502Z,0
2019-01-18T03:26:42.480Z,0
2019-01-18T03:27:42.454Z,0
2019-01-18T03:28:42.208Z,0
2019-01-18T03:29:42.443Z,0
2019-01-18T03:30:42.427Z,0
2019-01-18T03:31:42.722Z,0
2019-01-18T03:32:42.404Z,0
2019-01-18T03:33:42.362Z,0
2019-01-18T03:34:42.347Z,0
2019-01-18T03:35:42.368Z,0
2019-01-18T03:36:42.309Z,0
2019-01-18T03:37:42.294Z,0
2019-01-18T03:38:42.273Z,0
2019-01-18T03:39:42.256Z,0
2019-01-18T03:40:42.241Z,0
2019-01-18T03:41:42.243Z,0
2019-01-18T03:42:42.212Z,0
2019-01-18T03:43:42.188Z,0
2019-01-18T03:44:42.176Z,0
2019-01-18T03:45:42.162Z,0
2019-01-18T03:46:42.140Z,0
2019-01-18T03:47:42.122Z,0
2019-01-18T03:48:42.112Z,0
2019-01-18T03:49:42.108Z,0
2019-01-18T03:50:42.070Z,0
2019-01-18T03:51:42.056Z,0
2019-01-18T03:52:42.043Z,0
2019-01-18T03:53:42.018Z,0
2019-01-18T03:54:42.018Z,0
2019-01-18T03:55:41.989Z,0
2019-01-18T03:56:42.040Z,0
2019-01-18T03:57:41.950Z,0
2019-01-18T03:58:41.935Z,0
2019-01-18T03:59:41.682Z,0
2019-01-18T04:00:41.922Z,0
2019-01-18T04:01:41.900Z,0
2019-01-18T04:02:42.126Z,0
2019-01-18T04:03:41.852Z,0
2019-01-18T04:04:41.832Z,0
2019-01-18T04:05:41.818Z,0
2019-01-18T04:06:41.801Z,0
2019-01-18T04:07:41.783Z,0
2019-01-18T04:08:41.761Z,0
2019-01-18T04:09:41.744Z,0
2019-01-18T04:10:41.743Z,0
2019-01-18T04:11:41.728Z,0
2019-01-18T04:12:41.694Z,0
2019-01-18T04:13:41.694Z,0
2019-01-18T04:14:41.662Z,0
2019-01-18T04:15:41.644Z,0
2019-01-18T04:16:41.622Z,0
2019-01-18T04:17:41.612Z,0
2019-01-18T04:18:41.592Z,0
2019-01-18T04:19:41.327Z,0
2019-01-18T04:20:41.556Z,0
2019-01-18T04:21:41.539Z,0
2019-01-18T04:22:41.525Z,0
2019-01-18T04:23:41.502Z,0
2019-01-18T04:24:41.492Z,0
2019-01-18T04:25:41.474Z,0
2019-01-18T04:26:41.207Z,0
2019-01-18T04:27:41.437Z,0
2019-01-18T04:28:41.421Z,0
2019-01-18T04:29:41.404Z,0
2019-01-18T04:30:43.087Z,0
2019-01-18T04:31:41.384Z,0
2019-01-18T04:32:41.364Z,0
2019-01-18T04:33:41.588Z,0
2019-01-18T04:34:41.313Z,0
2019-01-18T04:35:41.303Z,0
2019-01-18T04:36:41.295Z,0
2019-01-18T04:37:41.269Z,0
2019-01-18T04:38:41.251Z,0
2019-01-18T04:39:41.233Z,0
2019-01-18T04:40:41.239Z,0
2019-01-18T04:41:41.198Z,0
2019-01-18T04:42:41.182Z,0
2019-01-18T04:43:41.210Z,0
2019-01-18T04:44:41.225Z,0
2019-01-18T04:45:41.130Z,0
2019-01-18T04:46:41.115Z,0
2019-01-18T04:47:41.116Z,0
2019-01-18T04:48:41.082Z,0
2019-01-18T04:49:41.066Z,0
2019-01-18T04:50:41.047Z,0
2019-01-18T04:51:41.044Z,0
2019-01-18T04:52:41.011Z,0
2019-01-18T04:53:40.995Z,0
2019-01-18T04:54:40.979Z,0
2019-01-18T04:55:40.959Z,0
2019-01-18T04:56:40.952Z,0
2019-01-18T04:57:40.979Z,0
2019-01-18T04:58:40.915Z,0
2019-01-18T04:59:40.890Z,0
2019-01-18T05:00:47.520Z,0
2019-01-18T05:01:40.860Z,0
2019-01-18T05:02:40.866Z,0
2019-01-18T05:03:40.832Z,0
2019-01-18T05:04:41.545Z,0
2019-01-18T05:05:40.802Z,0
2019-01-18T05:06:40.810Z,0
2019-01-18T05:07:40.760Z,0
2019-01-18T05:08:40.745Z,0
2019-01-18T05:09:40.745Z,0
2019-01-18T05:10:40.715Z,0
2019-01-18T05:11:40.699Z,0
2019-01-18T05:12:40.691Z,0
2019-01-18T05:13:40.665Z,0
2019-01-18T05:14:40.676Z,0
2019-01-18T05:15:40.628Z,0
2019-01-18T05:16:40.376Z,0
2019-01-18T05:17:40.606Z,0
2019-01-18T05:18:40.586Z,0
2019-01-18T05:19:41.564Z,0
2019-01-18T05:20:40.587Z,0
2019-01-18T05:21:40.529Z,0
2019-01-18T05:22:40.517Z,0
2019-01-18T05:23:40.496Z,0
2019-01-18T05:24:40.238Z,0
2019-01-18T05:25:40.466Z,0
2019-01-18T05:26:40.455Z,0
2019-01-18T05:27:40.436Z,0
2019-01-18T05:28:40.430Z,0
2019-01-18T05:29:40.399Z,0
2019-01-18T05:30:47.269Z,0
2019-01-18T05:31:40.381Z,0
2019-01-18T05:32:40.350Z,0
2019-01-18T05:33:40.138Z,0
2019-01-18T05:34:40.332Z,0
2019-01-18T05:35:40.551Z,0
2019-01-18T05:36:40.280Z,0
2019-01-18T05:37:40.314Z,0
2019-01-18T05:38:40.251Z,0
2019-01-18T05:39:40.229Z,0
2019-01-18T05:40:40.228Z,0
2019-01-18T05:41:40.193Z,0
2019-01-18T05:42:40.183Z,0
2019-01-18T05:43:40.167Z,0
2019-01-18T05:44:40.921Z,0
2019-01-18T05:45:40.138Z,0
2019-01-18T05:46:40.119Z,0
2019-01-18T05:47:40.113Z,0
2019-01-18T05:48:40.106Z,0
2019-01-18T05:49:40.063Z,0
2019-01-18T05:50:40.047Z,0
2019-01-18T05:51:40.029Z,0
2019-01-18T05:52:40.034Z,0
2019-01-18T05:53:40.006Z,0
2019-01-18T05:54:39.979Z,0
2019-01-18T05:55:39.967Z,0
2019-01-18T05:56:39.950Z,0
2019-01-18T05:57:39.934Z,0
2019-01-18T05:58:40.688Z,0
2019-01-18T05:59:39.894Z,0
2019-01-18T06:00:39.877Z,0
2019-01-18T06:01:40.022Z,0
2019-01-18T06:02:39.850Z,0
2019-01-18T06:03:39.830Z,0
2019-01-18T06:04:39.806Z,0
2019-01-18T06:05:39.790Z,0
2019-01-18T06:06:40.024Z,0
2019-01-18T06:07:39.761Z,0
2019-01-18T06:08:39.740Z,0
2019-01-18T06:09:39.803Z,0
2019-01-18T06:10:39.463Z,0
2019-01-18T06:11:39.707Z,0
2019-01-18T06:12:39.673Z,0
2019-01-18T06:13:39.664Z,0
2019-01-18T06:14:39.655Z,0
2019-01-18T06:15:40.529Z,0
2019-01-18T06:16:39.605Z,0
2019-01-18T06:17:39.600Z,0
2019-01-18T06:18:39.594Z,0
2019-01-18T06:19:39.549Z,0
2019-01-18T06:20:39.562Z,0
2019-01-18T06:21:39.278Z,0
2019-01-18T06:22:39.506Z,0
2019-01-18T06:23:39.508Z,0
2019-01-18T06:24:39.482Z,0
2019-01-18T06:25:39.462Z,0
2019-01-18T06:26:39.448Z,0
2019-01-18T06:27:39.437Z,0
2019-01-18T06:28:39.404Z,0
2019-01-18T06:29:39.387Z,0
2019-01-18T06:30:39.380Z,0
2019-01-18T06:31:39.349Z,0
2019-01-18T06:32:39.366Z,0
2019-01-18T06:33:39.489Z,0
2019-01-18T06:34:39.304Z,0
2019-01-18T06:35:39.300Z,0
2019-01-18T06:36:39.268Z,0
2019-01-18T06:37:39.007Z,0
2019-01-18T06:38:40.938Z,0
2019-01-18T06:39:39.235Z,0
2019-01-18T06:40:39.203Z,0
2019-01-18T06:41:39.187Z,0
2019-01-18T06:42:39.163Z,0
2019-01-18T06:43:39.146Z,0
2019-01-18T06:44:39.133Z,0
2019-01-18T06:45:39.115Z,0
2019-01-18T06:46:39.099Z,0
2019-01-18T06:47:39.088Z,0
2019-01-18T06:48:39.065Z,0
2019-01-18T06:49:39.046Z,0
2019-01-18T06:50:39.027Z,0
2019-01-18T06:51:39.052Z,0
2019-01-18T06:52:38.996Z,0
2019-01-18T06:53:38.985Z,0
2019-01-18T06:54:38.962Z,0
2019-01-18T06:55:38.944Z,0
2019-01-18T06:56:39.654Z,5
2019-01-18T06:57:38.925Z,5
2019-01-18T06:58:38.898Z,5
2019-01-18T06:59:38.875Z,5
2019-01-18T07:00:38.867Z,5
2019-01-18T07:01:38.841Z,5
2019-01-18T07:02:38.829Z,5
2019-01-18T07:03:38.810Z,5
2019-01-18T07:04:45.431Z,10
2019-01-18T07:05:38.778Z,10
2019-01-18T07:06:38.755Z,10
2019-01-18T07:07:38.742Z,10
2019-01-18T07:08:38.761Z,10
2019-01-18T07:09:38.956Z,10
2019-01-18T07:10:38.695Z,15
2019-01-18T07:11:39.515Z,15
2019-01-18T07:12:38.671Z,15
2019-01-18T07:13:38.645Z,15
2019-01-18T07:14:38.622Z,20
2019-01-18T07:15:38.613Z,20
2019-01-18T07:16:38.596Z,20
2019-01-18T07:17:38.575Z,20
2019-01-18T07:18:38.556Z,25
2019-01-18T07:19:38.545Z,25
2019-01-18T07:20:38.538Z,25
2019-01-18T07:21:38.509Z,30
2019-01-18T07:22:38.494Z,30
2019-01-18T07:23:39.045Z,30
2019-01-18T07:24:38.456Z,30
2019-01-18T07:25:38.447Z,30
2019-01-18T07:26:38.416Z,35
2019-01-18T07:27:38.414Z,35
2019-01-18T07:28:38.390Z,35
2019-01-18T07:29:38.371Z,35
2019-01-18T07:30:38.349Z,35
2019-01-18T07:31:38.336Z,40
2019-01-18T07:32:38.313Z,40
2019-01-18T07:33:38.299Z,40
2019-01-18T07:34:38.280Z,40
2019-01-18T07:35:38.271Z,45
2019-01-18T07:36:38.248Z,45
2019-01-18T07:37:38.236Z,45
2019-01-18T07:38:38.213Z,45
2019-01-18T07:40:38.431Z,50
2019-01-18T07:41:38.165Z,50
2019-01-18T07:42:38.151Z,50
2019-01-18T07:43:38.130Z,55
2019-01-18T07:44:38.108Z,55
2019-01-18T07:45:38.099Z,55
2019-01-18T07:46:38.082Z,55
2019-01-18T07:47:38.058Z,60
2019-01-18T07:48:38.038Z,60
2019-01-18T07:49:38.067Z,60
2019-01-18T07:50:38.005Z,60
2019-01-18T07:51:37.993Z,65
2019-01-18T07:52:37.969Z,65
2019-01-18T07:53:37.953Z,65
2019-01-18T07:54:37.946Z,65
2019-01-18T07:55:37.923Z,70
2019-01-18T07:56:37.904Z,70
2019-01-18T07:57:37.641Z,70
2019-01-18T07:58:37.868Z,70
2019-01-18T07:59:37.847Z,70
2019-01-18T08:00:37.846Z,75
2019-01-18T08:01:37.822Z,75
2019-01-18T08:02:37.802Z,75
2019-01-18T08:03:37.782Z,75
2019-01-18T08:04:37.771Z,75
2019-01-18T08:05:37.750Z,75
2019-01-18T08:06:37.727Z,80
2019-01-18T08:07:37.719Z,80
2019-01-18T08:08:37.696Z,80
2019-01-18T08:09:37.674Z,80
2019-01-18T08:10:37.661Z,80
2019-01-18T08:11:37.891Z,80
2019-01-18T08:12:37.620Z,85
2019-01-18T08:13:37.603Z,85
2019-01-18T08:14:37.584Z,85
2019-01-18T08:15:37.586Z,85
2019-01-18T08:16:37.858Z,85
2019-01-18T08:17:37.535Z,85
2019-01-18T08:18:37.523Z,85
2019-01-18T08:19:37.502Z,90
2019-01-18T08:20:37.493Z,90
2019-01-18T08:21:37.466Z,90
2019-01-18T08:22:37.449Z,90
2019-01-18T08:23:37.435Z,90
2019-01-18T08:24:37.414Z,90
2019-01-18T08:25:37.408Z,90
2019-01-18T08:26:37.375Z,95
2019-01-18T08:27:37.358Z,95
2019-01-18T08:28:37.350Z,95
2019-01-18T08:29:37.325Z,95
2019-01-18T08:30:37.328Z,95
2019-01-18T08:31:38.567Z,95
2019-01-18T08:32:37.281Z,95
2019-01-18T08:33:37.261Z,95
2019-01-18T08:34:37.248Z,95
2019-01-18T08:35:37.221Z,100
2019-01-18T08:36:37.207Z,100
2019-01-18T08:37:37.191Z,100
2019-01-18T08:38:37.172Z,100
2019-01-18T08:39:37.157Z,100
2019-01-18T08:40:36.900Z,100
2019-01-18T08:41:37.121Z,100
2019-01-18T08:42:37.117Z,100
2019-01-18T08:43:37.084Z,100
2019-01-18T08:44:36.830Z,100
2019-01-18T08:45:37.053Z,105
2019-01-18T08:46:37.040Z,105
2019-01-18T08:47:37.014Z,105
2019-01-18T08:48:37.007Z,105
2019-01-18T08:49:36.993Z,105
2019-01-18T08:50:36.982Z,105
2019-01-18T08:51:36.949Z,105
2019-01-18T08:52:36.941Z,105
2019-01-18T08:53:36.909Z,105
2019-01-18T08:54:38.347Z,105
2019-01-18T08:55:36.889Z,105
2019-01-18T08:56:36.863Z,105
2019-01-18T08:57:36.849Z,105
2019-01-18T08:58:36.857Z,105
2019-01-18T08:59:36.813Z,105
2019-01-18T09:00:36.792Z,110
2019-01-18T09:01:42.679Z,110
2019-01-18T09:02:36.758Z,110
2019-01-18T09:03:36.746Z,110
2019-01-18T09:04:36.729Z,110
2019-01-18T09:05:36.714Z,110
2019-01-18T09:06:36.693Z,110
2019-01-18T09:07:36.678Z,110
2019-01-18T09:08:36.675Z,110
2019-01-18T09:09:36.657Z,110
2019-01-18T09:10:36.619Z,110
2019-01-18T09:11:36.606Z,110
2019-01-18T09:12:36.587Z,110
2019-01-18T09:13:36.826Z,115
2019-01-18T09:14:36.561Z,115
2019-01-18T09:15:36.540Z,115
2019-01-18T09:16:36.573Z,115
2019-01-18T09:17:36.505Z,115
2019-01-18T09:18:37.462Z,115
2019-01-18T09:19:36.475Z,115
2019-01-18T09:20:36.454Z,115
2019-01-18T09:21:36.439Z,115
2019-01-18T09:22:36.417Z,115
2019-01-18T09:23:36.405Z,115
2019-01-18T09:24:36.390Z,115
2019-01-18T09:25:36.370Z,115
2019-01-18T09:26:36.351Z,115
2019-01-18T09:27:36.342Z,115
2019-01-18T09:28:36.319Z,115
2019-01-18T09:29:36.307Z,115
2019-01-18T09:30:36.048Z,115
2019-01-18T09:31:42.261Z,115
2019-01-18T09:32:36.274Z,120
2019-01-18T09:33:36.235Z,120
2019-01-18T09:34:36.219Z,120
2019-01-18T09:35:36.217Z,120
2019-01-18T09:36:36.195Z,120
2019-01-18T09:37:36.176Z,120
2019-01-18T09:38:36.181Z,120
2019-01-18T09:39:36.134Z,120
2019-01-18T09:40:36.118Z,120
2019-01-18T09:41:36.101Z,120
2019-01-18T09:42:36.084Z,120
2019-01-18T09:43:36.090Z,120
2019-01-18T09:44:36.300Z,120
2019-01-18T09:45:36.035Z,120
2019-01-18T09:46:36.036Z,120
2019-01-18T09:47:36.013Z,120
2019-01-18T09:48:35.987Z,120
2019-01-18T09:49:35.973Z,120
2019-01-18T09:50:35.965Z,120
2019-01-18T09:51:35.938Z,120
2019-01-18T09:52:35.927Z,120
2019-01-18T09:53:35.910Z,120
2019-01-18T09:54:35.883Z,120
2019-01-18T09:55:36.472Z,120
2019-01-18T09:56:35.865Z,120
2019-01-18T09:57:35.842Z,120
2019-01-18T09:58:35.831Z,120
2019-01-18T09:59:35.808Z,120
2019-01-18T10:00:35.835Z,120
2019-01-18T10:01:35.775Z,120
2019-01-18T10:02:35.756Z,120
2019-01-18T10:03:35.780Z,125
2019-01-18T10:04:35.721Z,125
2019-01-18T10:05:35.708Z,125
2019-01-18T10:06:35.690Z,125
2019-01-18T10:07:35.677Z,125
2019-01-18T10:08:35.664Z,125
2019-01-18T10:09:35.644Z,125
2019-01-18T10:10:35.629Z,125
2019-01-18T10:11:35.653Z,125
2019-01-18T10:12:35.595Z,125
2019-01-18T10:13:36.802Z,125
2019-01-18T10:14:35.563Z,125
2019-01-18T10:15:35.796Z,125
2019-01-18T10:16:35.534Z,125
2019-01-18T10:17:35.557Z,125
2019-01-18T10:18:35.534Z,125
2019-01-18T10:19:35.482Z,125
2019-01-18T10:20:35.464Z,130
2019-01-18T10:21:35.450Z,125
2019-01-18T10:22:35.447Z,125
2019-01-18T10:23:35.426Z,125
2019-01-18T10:24:35.158Z,130
2019-01-18T10:25:35.384Z,135
2019-01-18T10:26:35.373Z,140
2019-01-18T10:27:35.352Z,140
2019-01-18T10:28:35.338Z,135
2019-01-18T10:29:37.736Z,140
2019-01-18T10:30:35.305Z,135
2019-01-18T10:31:35.317Z,135
2019-01-18T10:32:35.272Z,135
2019-01-18T10:33:35.252Z,130
2019-01-18T10:34:35.263Z,135
2019-01-18T10:35:35.229Z,135
2019-01-18T10:36:34.981Z,130
2019-01-18T10:37:35.197Z,130
2019-01-18T10:38:35.183Z,130
2019-01-18T10:39:35.177Z,130
2019-01-18T10:40:35.149Z,130
2019-01-18T10:41:35.131Z,130
2019-01-18T10:42:35.113Z,125
2019-01-18T10:43:35.097Z,125
2019-01-18T10:44:35.081Z,125
2019-01-18T10:45:35.082Z,125
2019-01-18T10:46:35.054Z,125
2019-01-18T10:47:35.285Z,125
2019-01-18T10:48:35.023Z,125
2019-01-18T10:49:35.009Z,125
2019-01-18T10:50:35.041Z,125
2019-01-18T10:51:34.978Z,125
2019-01-18T10:52:34.963Z,125
2019-01-18T10:53:34.975Z,125
2019-01-18T10:54:34.931Z,125
2019-01-18T10:55:34.909Z,125
2019-01-18T10:56:34.895Z,125
2019-01-18T10:57:36.090Z,130
2019-01-18T10:58:34.875Z,130
2019-01-18T10:59:34.848Z,125
2019-01-18T11:00:34.842Z,125
2019-01-18T11:01:34.818Z,125
2019-01-18T11:02:34.802Z,125
2019-01-18T11:03:34.782Z,125
2019-01-18T11:04:34.783Z,125
2019-01-18T11:05:34.771Z,125
2019-01-18T11:06:34.747Z,125
2019-01-18T11:07:34.729Z,125
2019-01-18T11:08:34.950Z,125
2019-01-18T11:09:34.698Z,125
2019-01-18T11:10:34.678Z,125
2019-01-18T11:11:34.658Z,125
2019-01-18T11:12:34.645Z,125
2019-01-18T11:13:34.635Z,125
2019-01-18T11:14:34.623Z,125
2019-01-18T11:15:38.443Z,125
2019-01-18T11:16:34.589Z,125
2019-01-18T11:17:34.581Z,125
2019-01-18T11:18:34.802Z,130
2019-01-18T11:19:34.536Z,130
2019-01-18T11:20:34.526Z,130
2019-01-18T11:21:34.507Z,130
2019-01-18T11:22:34.493Z,135
2019-01-18T11:23:34.475Z,135
2019-01-18T11:24:34.482Z,140
2019-01-18T11:25:41.177Z,145
2019-01-18T11:26:34.429Z,150
2019-01-18T11:27:34.411Z,140
2019-01-18T11:28:34.395Z,135
2019-01-18T11:29:34.385Z,130
2019-01-18T11:30:34.366Z,130
2019-01-18T11:31:34.353Z,130
2019-01-18T11:32:34.335Z,125
2019-01-18T11:33:34.320Z,125
2019-01-18T11:34:34.310Z,120
2019-01-18T11:35:34.285Z,120
2019-01-18T11:36:34.274Z,120
2019-01-18T11:37:34.255Z,120
2019-01-18T11:38:34.245Z,120
2019-01-18T11:39:34.235Z,120
2019-01-18T11:40:34.214Z,120
2019-01-18T11:41:34.218Z,120
2019-01-18T11:42:34.179Z,115
2019-01-18T11:43:34.167Z,115
2019-01-18T11:44:34.161Z,115
2019-01-18T11:45:34.133Z,115
2019-01-18T11:46:34.120Z,115
2019-01-18T11:47:35.477Z,115
2019-01-18T11:48:34.100Z,115
2019-01-18T11:49:34.325Z,115
2019-01-18T11:50:34.061Z,115
2019-01-18T11:51:34.053Z,115
2019-01-18T11:52:34.024Z,115
2019-01-18T11:53:34.011Z,115
2019-01-18T11:54:34.002Z,115
2019-01-18T11:55:33.983Z,115
2019-01-18T11:56:33.976Z,115
2019-01-18T11:57:33.954Z,115
2019-01-18T11:58:33.941Z,115
2019-01-18T11:59:33.945Z,115
2019-01-18T12:00:40.261Z,115
2019-01-18T12:01:33.907Z,115
2019-01-18T12:02:33.877Z,115
2019-01-18T12:03:33.858Z,110
2019-01-18T12:04:33.846Z,110
2019-01-18T12:05:33.830Z,110
2019-01-18T12:06:33.810Z,110
2019-01-18T12:07:33.800Z,110
2019-01-18T12:08:33.785Z,110
2019-01-18T12:09:33.780Z,110
2019-01-18T12:10:33.763Z,110
2019-01-18T12:11:35.004Z,110
2019-01-18T12:12:34.906Z,110
2019-01-18T12:13:33.714Z,110
2019-01-18T12:14:33.696Z,110
2019-01-18T12:15:33.685Z,110
2019-01-18T12:16:33.662Z,110
2019-01-18T12:17:33.674Z,110
2019-01-18T12:18:33.631Z,110
2019-01-18T12:19:33.632Z,110
2019-01-18T12:20:33.920Z,110
2019-01-18T12:21:39.438Z,110
2019-01-18T12:22:33.569Z,110
2019-01-18T12:23:33.555Z,110
2019-01-18T12:24:33.549Z,110
2019-01-18T12:25:33.285Z,110
2019-01-18T12:26:33.511Z,110
2019-01-18T12:27:33.496Z,110
2019-01-18T12:28:33.240Z,110
2019-01-18T12:29:33.468Z,105
2019-01-18T12:30:33.455Z,105
2019-01-18T12:31:33.433Z,105
2019-01-18T12:32:38.253Z,105
2019-01-18T12:33:33.410Z,105
2019-01-18T12:34:33.397Z,105
2019-01-18T12:35:33.376Z,105
2019-01-18T12:36:33.357Z,105
2019-01-18T12:37:33.346Z,105
2019-01-18T12:38:33.374Z,105
2019-01-18T12:39:33.314Z,105
2019-01-18T12:40:33.303Z,105
2019-01-18T12:41:33.279Z,105
2019-01-18T12:42:33.265Z,105
2019-01-18T12:43:33.250Z,105
2019-01-18T12:44:33.239Z,100
2019-01-18T12:45:33.217Z,105
2019-01-18T12:46:33.204Z,105
2019-01-18T12:47:33.196Z,105
2019-01-18T12:48:33.170Z,105
2019-01-18T12:49:33.163Z,105
2019-01-18T12:50:33.143Z,105
2019-01-18T12:51:33.379Z,105
2019-01-18T12:52:33.160Z,105
2019-01-18T12:53:34.227Z,105
2019-01-18T12:54:33.122Z,100
2019-01-18T12:55:33.071Z,100
2019-01-18T12:56:33.051Z,100
2019-01-18T12:57:33.033Z,100
2019-01-18T12:58:33.029Z,100
2019-01-18T12:59:32.779Z,100
2019-01-18T13:00:32.987Z,100
2019-01-18T13:01:32.974Z,100
2019-01-18T13:02:37.806Z,100
2019-01-18T13:03:32.945Z,100
2019-01-18T13:04:32.927Z,100
2019-01-18T13:05:32.910Z,100
2019-01-18T13:06:32.898Z,100
2019-01-18T13:07:32.884Z,100
2019-01-18T13:08:32.883Z,100
2019-01-18T13:09:32.860Z,100
2019-01-18T13:10:32.840Z,100
2019-01-18T13:11:32.842Z,100
2019-01-18T13:12:32.806Z,100
2019-01-18T13:13:32.799Z,100
2019-01-18T13:14:32.777Z,95
2019-01-18T13:15:32.760Z,95
2019-01-18T13:16:32.743Z,95
2019-01-18T13:17:32.736Z,95
2019-01-18T13:18:32.712Z,95
2019-01-18T13:19:32.699Z,95
2019-01-18T13:20:32.701Z,95
2019-01-18T13:21:32.669Z,95
2019-01-18T13:22:35.918Z,95
2019-01-18T13:23:32.632Z,95
2019-01-18T13:24:32.643Z,95
2019-01-18T13:25:32.604Z,95
2019-01-18T13:26:32.593Z,95
2019-01-18T13:27:32.574Z,95
2019-01-18T13:28:32.566Z,95
2019-01-18T13:29:32.543Z,95
2019-01-18T13:30:32.526Z,95
2019-01-18T13:31:32.555Z,95
2019-01-18T13:32:32.500Z,90
2019-01-18T13:33:32.494Z,90
2019-01-18T13:34:32.467Z,90
2019-01-18T13:35:32.451Z,90
2019-01-18T13:36:32.438Z,90
2019-01-18T13:37:32.419Z,90
2019-01-18T13:38:32.411Z,90
2019-01-18T13:39:32.395Z,90
2019-01-18T13:40:32.130Z,90
2019-01-18T13:41:32.362Z,90
2019-01-18T13:42:32.348Z,90
2019-01-18T13:43:32.333Z,90
2019-01-18T13:44:32.316Z,90
2019-01-18T13:45:33.906Z,85
2019-01-18T13:46:32.278Z,85
2019-01-18T13:47:32.270Z,85
2019-01-18T13:48:32.269Z,85
2019-01-18T13:49:32.236Z,85
2019-01-18T13:50:32.225Z,85
2019-01-18T13:51:32.201Z,85
2019-01-18T13:52:32.185Z,85
2019-01-18T13:53:32.421Z,85
2019-01-18T13:54:32.172Z,85
2019-01-18T13:55:32.143Z,85
2019-01-18T13:56:32.151Z,85
2019-01-18T13:57:32.112Z,80
2019-01-18T13:58:32.094Z,80
2019-01-18T13:59:32.076Z,80
2019-01-18T14:00:32.076Z,80
2019-01-18T14:01:32.045Z,80
2019-01-18T14:02:32.050Z,80
2019-01-18T14:03:32.033Z,80
2019-01-18T14:04:32.003Z,80
2019-01-18T14:05:32.001Z,80
2019-01-18T14:06:31.980Z,75
2019-01-18T14:07:31.957Z,75
2019-01-18T14:08:31.935Z,75
2019-01-18T14:09:31.923Z,75
2019-01-18T14:10:31.907Z,75
2019-01-18T14:11:31.897Z,75
2019-01-18T14:12:31.876Z,75
2019-01-18T14:13:31.860Z,75
2019-01-18T14:14:32.094Z,75
2019-01-18T14:15:31.830Z,70
2019-01-18T14:16:31.809Z,70
2019-01-18T14:17:31.794Z,70
2019-01-18T14:18:31.778Z,70
2019-01-18T14:19:31.768Z,70
2019-01-18T14:20:31.745Z,70
2019-01-18T14:21:31.747Z,70